Time;durP1;ratioP1;P1;durP2;ratioP2;P2;SDS_P1;SDS_P2;PMS_P1;PMS_P2;Temp;Humidity;BMP_temperature;BMP_pressure;BME280_temperature;BME280_humidity;BME280_pressure;Samples;Min_cycle;Max_cycle;Signal;HPM_P1;HPM_P2
2022/02/28 00:02:25;;;;;;;3.22;2.92;;;17.00;50.20;;;;;;5051930;28;20193;-65
2022/02/28 00:04:52;;;;;;;5.18;3.08;;;17.00;50.30;;;;;;5052602;28;20250;-64
2022/02/28 00:07:18;;;;;;;3.75;2.95;;;17.00;50.30;;;;;;5052447;28;20175;-63
2022/02/28 00:09:43;;;;;;;3.63;3.33;;;17.00;50.20;;;;;;5051922;28;20630;-63
2022/02/28 00:12:09;;;;;;;3.20;2.90;;;17.00;50.20;;;;;;5052229;28;20625;-63
2022/02/28 00:14:34;;;;;;;2.60;2.40;;;17.00;50.30;;;;;;5051832;28;20183;-64
2022/02/28 00:17:00;;;;;;;2.90;2.60;;;16.90;50.20;;;;;;5051909;28;20179;-64
2022/02/28 00:19:25;;;;;;;3.30;3.00;;;17.00;50.20;;;;;;5052380;28;20203;-64
2022/02/28 00:21:51;;;;;;;3.15;2.95;;;16.90;50.20;;;;;;5051547;28;20396;-64
2022/02/28 00:24:16;;;;;;;3.35;3.03;;;16.90;50.20;;;;;;5051914;28;20254;-63
2022/02/28 00:26:42;;;;;;;3.10;2.90;;;16.90;50.20;;;;;;5052373;28;20175;-63
2022/02/28 00:29:08;;;;;;;3.47;3.17;;;16.90;50.20;;;;;;5051089;28;20182;-61
2022/02/28 00:31:34;;;;;;;3.08;2.83;;;16.90;50.20;;;;;;5052230;28;20221;-62
2022/02/28 00:33:59;;;;;;;3.25;2.85;;;16.90;50.20;;;;;;5051974;28;20182;-63
2022/02/28 00:36:26;;;;;;;2.72;2.53;;;16.90;50.20;;;;;;5051364;28;20175;-64
2022/02/28 00:38:52;;;;;;;3.03;2.70;;;16.90;50.20;;;;;;5052265;28;20228;-64
2022/02/28 00:41:17;;;;;;;3.40;3.10;;;16.80;50.10;;;;;;5052063;28;20171;-64
2022/02/28 00:43:43;;;;;;;3.20;3.00;;;16.80;50.10;;;;;;5051290;28;20175;-64
2022/02/28 00:46:08;;;;;;;2.72;2.53;;;16.80;50.10;;;;;;5051688;28;20179;-64
2022/02/28 00:48:34;;;;;;;3.03;2.67;;;16.80;50.10;;;;;;5051931;28;20194;-63
2022/02/28 00:51:00;;;;;;;3.20;2.95;;;16.80;50.10;;;;;;5050877;28;20179;-62
2022/02/28 00:53:25;;;;;;;3.22;2.92;;;16.80;50.10;;;;;;5052093;28;20258;-62
2022/02/28 00:55:51;;;;;;;3.38;3.08;;;16.80;50.10;;;;;;5051997;28;20178;-63
2022/02/28 00:58:16;;;;;;;3.53;3.15;;;16.80;50.10;;;;;;5050720;28;20223;-64
2022/02/28 01:00:41;;;;;;;3.63;3.22;;;16.80;50.10;;;;;;5051756;28;20193;-64
2022/02/28 01:03:07;;;;;;;2.83;2.55;;;16.70;50.00;;;;;;5051511;28;20649;-64
2022/02/28 01:05:33;;;;;;;3.58;2.95;;;16.70;50.10;;;;;;5051122;28;20190;-65
2022/02/28 01:07:58;;;;;;;3.03;2.72;;;16.70;50.00;;;;;;5051606;28;20167;-62
2022/02/28 01:10:24;;;;;;;3.38;3.08;;;16.70;50.10;;;;;;5051898;28;20217;-63
2022/02/28 01:12:50;;;;;;;3.75;2.78;;;16.70;50.00;;;;;;5051245;28;20261;-63
2022/02/28 01:15:16;;;;;;;3.08;2.80;;;16.70;50.10;;;;;;5051399;28;20258;-63
2022/02/28 01:17:42;;;;;;;2.95;2.72;;;16.70;50.10;;;;;;5051134;28;20644;-64
2022/02/28 01:20:08;;;;;;;2.97;2.67;;;16.70;50.10;;;;;;5051176;28;20670;-63
2022/02/28 01:22:34;;;;;;;3.00;2.80;;;16.70;50.10;;;;;;5051844;28;20171;-63
2022/02/28 01:24:59;;;;;;;3.13;2.83;;;16.60;50.00;;;;;;5050691;28;20227;-63
2022/02/28 01:27:25;;;;;;;3.17;2.88;;;16.60;50.00;;;;;;5051672;28;20225;-61
2022/02/28 01:29:50;;;;;;;3.78;3.33;;;16.60;50.00;;;;;;5051625;28;20167;-63
2022/02/28 01:32:16;;;;;;;3.28;2.97;;;16.60;50.00;;;;;;5050422;28;20202;-62
2022/02/28 01:34:41;;;;;;;3.75;3.25;;;16.60;50.00;;;;;;5051328;28;20218;-63
2022/02/28 01:37:07;;;;;;;3.78;3.35;;;16.60;50.00;;;;;;5051135;28;20179;-63
2022/02/28 01:39:33;;;;;;;3.20;2.90;;;16.60;50.00;;;;;;5050938;28;20242;-64
2022/02/28 01:41:58;;;;;;;3.20;2.80;;;16.50;50.00;;;;;;5054927;28;20167;-64
2022/02/28 01:44:24;;;;;;;3.60;3.30;;;16.60;50.00;;;;;;5055285;28;20659;-63
2022/02/28 01:46:49;;;;;;;3.15;2.78;;;16.50;50.00;;;;;;5054459;28;20187;-64
2022/02/28 01:49:15;;;;;;;4.35;3.25;;;16.50;50.00;;;;;;5054887;28;20282;-61
2022/02/28 01:51:40;;;;;;;3.47;3.17;;;16.50;50.00;;;;;;5055265;28;20194;-63
2022/02/28 01:54:06;;;;;;;4.03;3.40;;;16.50;50.10;;;;;;5053880;28;20201;-62
2022/02/28 01:56:31;;;;;;;3.97;3.20;;;16.50;50.10;;;;;;5054998;28;20175;-63
2022/02/28 01:58:57;;;;;;;4.25;3.47;;;16.50;50.00;;;;;;5054398;28;20234;-63
2022/02/28 02:01:23;;;;;;;3.88;3.42;;;16.50;50.00;;;;;;5054041;28;20178;-63
2022/02/28 02:03:48;;;;;;;3.53;3.22;;;16.50;50.00;;;;;;5054690;28;20218;-64
2022/02/28 02:06:13;;;;;;;3.60;3.30;;;16.50;50.10;;;;;;5054670;28;20195;-64
2022/02/28 02:08:40;;;;;;;4.47;3.53;;;16.50;50.10;;;;;;5054026;28;20171;-63
2022/02/28 02:11:05;;;;;;;4.35;3.70;;;16.40;50.10;;;;;;5054551;28;20191;-63
2022/02/28 02:13:31;;;;;;;4.55;3.70;;;16.50;50.10;;;;;;5054548;28;20214;-63
2022/02/28 02:15:57;;;;;;;3.70;3.35;;;16.40;50.00;;;;;;5054103;28;20225;-63
2022/02/28 02:18:23;;;;;;;3.47;3.17;;;16.40;50.10;;;;;;5036447;28;20203;-63
2022/02/28 02:20:49;;;;;;;3.22;2.92;;;16.40;50.10;;;;;;5054890;28;20190;-64
2022/02/28 02:23:15;;;;;;;3.08;2.78;;;16.40;50.00;;;;;;5053477;28;20167;-63
2022/02/28 02:25:40;;;;;;;4.10;3.50;;;16.40;50.00;;;;;;5054336;28;20606;-62
2022/02/28 02:28:06;;;;;;;4.60;3.65;;;16.40;50.10;;;;;;5053291;28;20224;-62
2022/02/28 02:30:32;;;;;;;4.30;3.90;;;16.40;50.10;;;;;;5054216;28;20183;-62
2022/02/28 02:32:58;;;;;;;4.43;3.50;;;16.30;50.00;;;;;;5053753;28;20171;-63
2022/02/28 02:35:23;;;;;;;4.07;3.42;;;16.30;50.00;;;;;;5053416;28;20175;-63
2022/02/28 02:37:49;;;;;;;3.97;3.45;;;16.30;50.10;;;;;;5054181;28;20186;-65
2022/02/28 02:40:14;;;;;;;4.03;3.53;;;16.30;50.10;;;;;;5036064;28;20225;-64
2022/02/28 02:42:40;;;;;;;4.13;3.25;;;16.30;50.10;;;;;;5053274;28;20190;-64
2022/02/28 02:45:06;;;;;;;4.13;3.72;;;16.30;50.10;;;;;;5053631;28;20185;-64
2022/02/28 02:47:31;;;;;;;4.50;3.60;;;16.30;50.10;;;;;;5053797;28;20496;-63
2022/02/28 02:49:57;;;;;;;4.72;3.50;;;16.30;50.10;;;;;;5052696;28;20631;-62
2022/02/28 02:52:22;;;;;;;4.47;3.65;;;16.30;50.20;;;;;;5053569;28;20521;-62
2022/02/28 02:54:48;;;;;;;3.88;3.47;;;16.30;50.20;;;;;;5053757;28;20186;-63
2022/02/28 02:57:13;;;;;;;3.45;3.15;;;16.30;50.20;;;;;;5052461;28;20167;-62
2022/02/28 02:59:39;;;;;;;4.43;3.50;;;16.20;50.10;;;;;;5053514;28;20214;-64
2022/02/28 03:02:04;;;;;;;3.85;3.45;;;16.30;50.20;;;;;;5053417;28;20581;-64
2022/02/28 03:04:30;;;;;;;4.10;3.60;;;16.20;50.10;;;;;;5053052;28;20282;-63
2022/02/28 03:06:55;;;;;;;4.00;3.50;;;16.20;50.30;;;;;;5053421;28;20172;-63
2022/02/28 03:09:21;;;;;;;3.53;3.22;;;16.20;50.20;;;;;;5053510;28;20182;-63
2022/02/28 03:11:46;;;;;;;3.50;3.20;;;16.20;50.20;;;;;;5052675;28;20170;-63
2022/02/28 03:14:12;;;;;;;3.83;3.42;;;16.20;50.20;;;;;;5053217;28;20227;-63
2022/02/28 03:16:38;;;;;;;3.47;3.17;;;16.20;50.20;;;;;;5053228;28;20567;-64
2022/02/28 03:19:03;;;;;;;3.67;3.30;;;16.20;50.20;;;;;;5052164;28;20233;-63
2022/02/28 03:21:32;;;;;;;3.72;3.28;;;16.20;50.20;;;;;;5053232;28;20182;-64
2022/02/28 03:23:57;;;;;;;3.53;3.22;;;16.20;50.20;;;;;;5052933;28;20578;-63
2022/02/28 03:26:23;;;;;;;3.30;3.00;;;16.20;50.20;;;;;;5052708;28;20163;-62
2022/02/28 03:28:49;;;;;;;3.70;3.15;;;16.10;50.20;;;;;;5053177;28;20274;-62
2022/02/28 03:31:14;;;;;;;3.17;2.97;;;16.10;50.10;;;;;;5052958;28;20182;-62
2022/02/28 03:33:39;;;;;;;3.58;3.10;;;16.10;50.20;;;;;;5052434;28;20226;-63
2022/02/28 03:36:05;;;;;;;3.78;3.47;;;16.10;50.20;;;;;;5052637;28;20518;-63
2022/02/28 03:38:31;;;;;;;3.78;3.40;;;16.10;50.20;;;;;;5052461;28;20206;-64
2022/02/28 03:40:56;;;;;;;3.70;3.40;;;16.10;50.20;;;;;;5052647;28;20194;-64
2022/02/28 03:43:22;;;;;;;3.40;3.10;;;16.10;50.20;;;;;;5052894;28;20232;-64
2022/02/28 03:45:47;;;;;;;4.03;3.40;;;16.00;50.10;;;;;;5052272;28;20167;-64
2022/02/28 03:48:14;;;;;;;3.50;3.20;;;16.00;50.10;;;;;;5052728;28;20171;-63
2022/02/28 03:50:40;;;;;;;4.60;3.30;;;16.00;50.20;;;;;;5052973;28;20179;-63
2022/02/28 03:53:05;;;;;;;3.25;2.95;;;16.00;50.10;;;;;;5051877;28;20588;-62
2022/02/28 03:55:31;;;;;;;3.00;2.80;;;16.00;50.20;;;;;;5052917;28;20183;-62
2022/02/28 03:57:56;;;;;;;3.45;3.15;;;16.00;50.10;;;;;;5052453;28;20253;-64
2022/02/28 04:00:22;;;;;;;3.30;3.00;;;16.00;50.20;;;;;;5051929;28;20214;-63
2022/02/28 04:02:47;;;;;;;3.10;2.80;;;16.00;50.20;;;;;;5052364;28;20175;-65
2022/02/28 04:05:13;;;;;;;3.70;3.40;;;16.00;50.20;;;;;;5052319;28;20182;-63
2022/02/28 04:07:40;;;;;;;3.08;2.88;;;16.00;50.20;;;;;;5051989;28;20199;-64
2022/02/28 04:10:06;;;;;;;3.35;3.05;;;16.00;50.20;;;;;;5052793;28;20203;-63
2022/02/28 04:12:31;;;;;;;3.33;2.58;;;15.90;50.20;;;;;;5052350;28;20691;-63
2022/02/28 04:14:57;;;;;;;3.90;3.08;;;15.90;50.10;;;;;;5051260;28;20179;-63
2022/02/28 04:17:22;;;;;;;3.50;3.13;;;15.90;50.20;;;;;;5052308;28;20175;-64
2022/02/28 04:19:48;;;;;;;3.45;3.15;;;15.90;50.20;;;;;;5052469;28;20237;-65
2022/02/28 04:22:13;;;;;;;4.40;4.00;;;15.90;50.20;;;;;;5051269;28;20178;-64
2022/02/28 04:24:39;;;;;;;3.20;2.90;;;15.90;50.10;;;;;;5052255;28;20593;-62
2022/02/28 04:27:04;;;;;;;3.55;3.20;;;15.90;50.10;;;;;;5051949;28;20630;-62
2022/02/28 04:29:30;;;;;;;3.72;3.25;;;15.90;50.30;;;;;;5051519;28;20183;-61
2022/02/28 04:31:55;;;;;;;3.35;3.05;;;15.90;50.10;;;;;;5051841;28;20217;-62
2022/02/28 04:34:21;;;;;;;3.38;3.08;;;15.90;50.10;;;;;;5052279;28;20171;-63
2022/02/28 04:36:46;;;;;;;3.60;3.20;;;15.90;50.20;;;;;;5051327;28;20175;-63
2022/02/28 04:39:15;;;;;;;3.17;2.80;;;15.80;50.20;;;;;;5051875;28;20712;-64
2022/02/28 04:41:40;;;;;;;3.50;3.20;;;15.80;50.20;;;;;;5051298;28;20607;-64
2022/02/28 04:44:06;;;;;;;3.10;2.80;;;15.80;50.30;;;;;;5051806;28;20202;-64
2022/02/28 04:46:31;;;;;;;3.40;3.03;;;15.80;50.10;;;;;;5051944;28;20560;-64
2022/02/28 04:48:57;;;;;;;3.08;2.75;;;15.80;50.20;;;;;;5051084;28;20535;-62
2022/02/28 04:51:22;;;;;;;3.78;3.45;;;15.80;50.20;;;;;;5052063;28;20186;-62
2022/02/28 04:53:48;;;;;;;3.10;2.80;;;15.80;50.20;;;;;;5051976;28;20214;-62
2022/02/28 04:56:13;;;;;;;3.47;3.17;;;15.70;50.20;;;;;;5051068;28;20308;-64
2022/02/28 04:58:39;;;;;;;3.30;3.00;;;15.80;50.20;;;;;;5051640;28;20641;-64
2022/02/28 05:01:04;;;;;;;2.75;2.50;;;15.80;50.20;;;;;;5051517;28;20183;-64
2022/02/28 05:03:30;;;;;;;3.40;2.97;;;15.80;50.30;;;;;;5051409;28;20171;-64
2022/02/28 05:05:55;;;;;;;3.25;2.85;;;15.70;50.20;;;;;;5051672;28;20266;-63
2022/02/28 05:08:21;;;;;;;3.00;2.75;;;15.70;50.30;;;;;;5051833;28;20163;-63
2022/02/28 05:10:46;;;;;;;2.72;2.53;;;15.70;50.20;;;;;;5051046;28;20198;-64
2022/02/28 05:13:12;;;;;;;2.83;2.63;;;15.70;50.30;;;;;;5051369;28;20183;-64
2022/02/28 05:15:37;;;;;;;3.00;2.67;;;15.70;51.00;;;;;;5053526;28;20171;-64
2022/02/28 05:18:03;;;;;;;3.30;3.00;;;15.70;50.30;;;;;;5054570;28;20168;-65
2022/02/28 05:20:28;;;;;;;3.22;2.90;;;15.70;50.20;;;;;;5055562;28;20211;-64
2022/02/28 05:22:54;;;;;;;3.10;2.55;;;15.70;50.30;;;;;;5055398;28;20171;-64
2022/02/28 05:25:20;;;;;;;3.42;2.88;;;15.70;50.40;;;;;;5054791;28;20523;-63
2022/02/28 05:27:46;;;;;;;3.20;2.90;;;15.60;50.30;;;;;;5055315;28;20580;-62
2022/02/28 05:30:12;;;;;;;3.20;2.95;;;15.70;50.40;;;;;;5055233;28;20179;-62
2022/02/28 05:32:38;;;;;;;2.78;2.58;;;15.60;50.30;;;;;;5054799;28;20177;-63
2022/02/28 05:35:10;;;;;;;3.05;2.75;;;15.60;50.30;;;;;;5055112;28;20524;-64
2022/02/28 05:37:35;;;;;;;3.03;2.72;;;15.60;50.40;;;;;;5055274;28;20642;-64
2022/02/28 05:40:01;;;;;;;3.30;3.00;;;15.60;50.30;;;;;;5054207;28;20206;-65
2022/02/28 05:42:27;;;;;;;3.00;2.80;;;15.60;50.40;;;;;;5055273;28;20182;-64
2022/02/28 05:44:52;;;;;;;2.90;2.70;;;15.60;51.00;;;;;;5055155;28;20225;-65
2022/02/28 05:47:18;;;;;;;3.47;2.70;;;15.60;50.30;;;;;;5054708;28;20225;-64
2022/02/28 05:49:43;;;;;;;3.20;2.90;;;15.60;50.40;;;;;;5055377;28;20167;-63
2022/02/28 05:52:09;;;;;;;3.08;2.78;;;15.60;50.40;;;;;;5054015;28;20183;-63
2022/02/28 05:54:34;;;;;;;2.60;2.40;;;15.60;50.30;;;;;;5055279;28;20174;-63
2022/02/28 05:57:00;;;;;;;3.05;2.72;;;15.50;50.30;;;;;;5054761;28;20171;-64
2022/02/28 05:59:25;;;;;;;3.08;2.75;;;15.50;50.40;;;;;;5054174;28;20223;-64
2022/02/28 06:01:57;;;;;;;2.83;2.55;;;15.50;50.30;;;;;;5054889;28;20167;-66
2022/02/28 06:04:22;;;;;;;2.80;2.45;;;15.50;50.50;;;;;;5054795;28;20229;-65
2022/02/28 06:06:48;;;;;;;2.72;2.53;;;15.50;50.60;;;;;;5054192;28;20171;-64
2022/02/28 06:09:13;;;;;;;2.88;2.67;;;15.60;51.20;;;;;;5054381;28;20187;-63
2022/02/28 06:11:39;;;;;;;3.08;2.67;;;15.60;50.30;;;;;;5054704;28;20668;-64
2022/02/28 06:14:04;;;;;;;2.95;2.75;;;15.60;50.30;;;;;;5053645;28;20183;-64
2022/02/28 06:16:30;;;;;;;2.90;2.70;;;15.70;50.10;;;;;;5054770;28;20190;-64
2022/02/28 06:18:55;;;;;;;2.72;2.53;;;15.70;49.90;;;;;;5054350;28;20221;-64
2022/02/28 06:21:21;;;;;;;2.75;2.55;;;15.70;49.90;;;;;;5053662;28;20262;-64
2022/02/28 06:23:46;;;;;;;3.08;2.70;;;15.80;50.00;;;;;;5054568;28;20187;-63
2022/02/28 06:26:12;;;;;;;2.55;2.35;;;15.90;50.10;;;;;;5053742;28;20198;-63
2022/02/28 06:28:37;;;;;;;2.40;2.20;;;15.90;50.10;;;;;;5053513;28;20168;-63
2022/02/28 06:31:03;;;;;;;2.45;2.22;;;16.00;50.10;;;;;;5054163;28;20175;-62
2022/02/28 06:33:29;;;;;;;2.78;2.47;;;16.00;50.00;;;;;;5054367;28;20178;-63
2022/02/28 06:35:54;;;;;;;2.30;2.10;;;16.10;50.00;;;;;;5053322;28;20278;-64
2022/02/28 06:38:20;;;;;;;2.50;2.30;;;16.20;49.90;;;;;;5054060;28;20668;-65
2022/02/28 06:40:46;;;;;;;2.53;2.30;;;16.30;49.90;;;;;;5054085;28;20179;-67
2022/02/28 06:43:15;;;;;;;2.72;2.50;;;16.30;49.80;;;;;;5053292;28;20301;-65
2022/02/28 06:45:41;;;;;;;3.05;2.40;;;16.40;49.70;;;;;;5054214;28;20182;-65
2022/02/28 06:48:06;;;;;;;2.50;2.30;;;16.40;49.60;;;;;;5053810;28;20175;-64
2022/02/28 06:50:32;;;;;;;2.58;2.38;;;16.50;49.60;;;;;;5053198;28;20203;-63
2022/02/28 06:52:57;;;;;;;2.55;2.35;;;16.50;49.50;;;;;;5053753;28;20206;-63
2022/02/28 06:55:23;;;;;;;2.08;1.98;;;16.40;49.50;;;;;;5053131;28;20341;-63
2022/02/28 06:57:48;;;;;;;2.22;2.03;;;16.40;49.60;;;;;;5053561;28;20700;-65
2022/02/28 07:00:14;;;;;;;2.63;2.42;;;16.40;49.70;;;;;;5053527;28;20207;-64
2022/02/28 07:02:40;;;;;;;2.40;2.20;;;16.30;49.70;;;;;;5053099;28;20233;-66
2022/02/28 07:05:06;;;;;;;2.63;2.42;;;16.30;49.80;;;;;;5053494;28;20649;-65
2022/02/28 07:07:31;;;;;;;2.88;2.55;;;16.30;49.80;;;;;;5053834;28;20194;-63
2022/02/28 07:09:57;;;;;;;3.05;2.75;;;16.30;49.80;;;;;;5052526;28;20514;-63
2022/02/28 07:12:23;;;;;;;2.50;2.30;;;16.40;49.80;;;;;;5053479;28;20265;-64
2022/02/28 07:14:48;;;;;;;2.50;2.30;;;16.50;49.80;;;;;;5053674;28;20179;-65
2022/02/28 07:17:13;;;;;;;2.20;2.05;;;16.60;49.70;;;;;;5052470;28;20225;-63
2022/02/28 07:19:39;;;;;;;2.55;2.28;;;16.70;49.50;;;;;;5053223;28;20238;-64
2022/02/28 07:22:05;;;;;;;2.40;2.20;;;16.80;49.30;;;;;;5052858;28;20604;-69
2022/02/28 07:24:30;;;;;;;2.50;2.30;;;16.80;49.20;;;;;;5052406;28;20179;-73
2022/02/28 07:26:55;;;;;;;2.90;2.10;;;17.00;49.90;;;;;;5052590;28;20505;-72
2022/02/28 07:29:21;;;;;;;3.63;2.60;;;17.10;49.10;;;;;;5052926;28;20221;-71
2022/02/28 07:31:46;;;;;;;2.55;2.20;;;17.20;49.00;;;;;;5051962;28;20175;-72
2022/02/28 07:34:12;;;;;;;2.78;2.03;;;17.30;49.10;;;;;;5052482;28;20236;-72
2022/02/28 07:36:38;;;;;;;3.05;2.30;;;17.40;49.10;;;;;;5052690;28;20175;-71
2022/02/28 07:39:04;;;;;;;4.28;2.33;;;17.50;48.90;;;;;;5050824;28;20566;-72
2022/02/28 07:41:29;;;;;;;3.00;2.47;;;17.60;48.80;;;;;;5052545;28;20179;-72
2022/02/28 07:43:55;;;;;;;2.40;2.10;;;17.70;48.70;;;;;;5052300;28;20186;-71
2022/02/28 07:46:20;;;;;;;3.08;2.47;;;17.90;48.50;;;;;;5051978;28;20634;-68
2022/02/28 07:48:46;;;;;;;3.60;2.50;;;18.00;48.40;;;;;;5052815;28;20179;-68
2022/02/28 07:51:11;;;;;;;2.50;2.30;;;18.00;48.50;;;;;;5052308;28;20210;-71
2022/02/28 07:53:37;;;;;;;3.05;2.35;;;18.00;48.50;;;;;;5051798;28;20175;-74
2022/02/28 07:56:02;;;;;;;3.15;2.60;;;18.10;48.60;;;;;;5052004;28;20186;-69
2022/02/28 07:58:28;;;;;;;3.05;2.78;;;18.20;48.40;;;;;;5054339;28;20226;-69
2022/02/28 08:00:53;;;;;;;3.13;2.38;;;18.30;48.30;;;;;;5051383;28;20182;-68
2022/02/28 08:03:19;;;;;;;5.40;2.10;;;18.40;48.20;;;;;;5052211;28;20539;-70
2022/02/28 08:05:44;;;;;;;2.78;2.10;;;18.40;48.20;;;;;;5051744;28;20183;-68
2022/02/28 08:08:10;;;;;;;2.83;2.20;;;18.40;48.20;;;;;;5051986;28;20325;-69
2022/02/28 08:10:36;;;;;;;3.22;2.60;;;18.40;48.40;;;;;;5052310;28;20236;-69
2022/02/28 08:13:02;;;;;;;2.70;2.50;;;18.50;48.20;;;;;;5051429;28;20258;-69
2022/02/28 08:15:27;;;;;;;3.33;2.58;;;18.40;48.40;;;;;;5052154;28;20167;-69
2022/02/28 08:17:53;;;;;;;3.67;2.47;;;18.40;48.40;;;;;;5052137;28;20182;-68
2022/02/28 08:20:18;;;;;;;4.00;2.63;;;18.40;48.40;;;;;;5051314;28;20219;-69
2022/02/28 08:22:44;;;;;;;4.07;2.85;;;18.40;48.40;;;;;;5052178;28;20692;-68
2022/02/28 08:25:10;;;;;;;3.10;2.35;;;18.40;48.50;;;;;;5052015;28;20265;-69
2022/02/28 08:27:35;;;;;;;6.30;2.50;;;18.40;48.50;;;;;;5051672;28;20274;-69
2022/02/28 08:30:01;;;;;;;3.40;2.28;;;18.40;48.60;;;;;;5052037;28;20254;-69
2022/02/28 08:32:26;;;;;;;3.55;2.78;;;18.40;48.50;;;;;;5052120;28;20535;-71
2022/02/28 08:34:52;;;;;;;4.80;2.60;;;18.50;48.60;;;;;;5051554;28;20175;-70
2022/02/28 08:37:17;;;;;;;5.32;3.03;;;18.50;48.60;;;;;;5052244;28;20175;-70
2022/02/28 08:39:43;;;;;;;2.88;2.40;;;18.60;48.50;;;;;;5051992;28;20210;-69
2022/02/28 08:42:08;;;;;;;2.78;2.40;;;18.60;48.30;;;;;;5051197;28;20175;-70
2022/02/28 08:44:34;;;;;;;3.97;2.42;;;18.60;48.40;;;;;;5052344;28;20554;-70
2022/02/28 08:46:59;;;;;;;3.33;2.40;;;18.60;48.30;;;;;;5051806;28;20313;-71
2022/02/28 08:49:25;;;;;;;2.78;2.40;;;18.60;48.30;;;;;;5051265;28;20186;-71
2022/02/28 08:51:54;;;;;;;2.47;2.28;;;18.70;48.30;;;;;;5052291;28;20330;-70
2022/02/28 08:54:20;;;;;;;3.58;2.50;;;18.70;48.30;;;;;;5052172;28;20210;-70
2022/02/28 08:56:45;;;;;;;4.32;2.55;;;18.80;48.40;;;;;;5051577;28;20207;-70
2022/02/28 08:59:11;;;;;;;4.15;2.47;;;18.80;48.30;;;;;;5051405;28;20230;-70
2022/02/28 09:01:36;;;;;;;3.67;2.47;;;18.80;48.30;;;;;;5052207;28;20556;-71
2022/02/28 09:04:02;;;;;;;2.70;2.50;;;18.80;48.30;;;;;;5051004;28;20258;-71
2022/02/28 09:06:28;;;;;;;2.95;2.13;;;18.80;49.00;;;;;;5051901;28;20187;-71
2022/02/28 09:08:53;;;;;;;3.53;2.30;;;18.80;48.40;;;;;;5051488;28;20167;-70
2022/02/28 09:11:21;;;;;;;2.55;2.28;;;18.80;48.50;;;;;;5051409;28;20175;-69
2022/02/28 09:13:47;;;;;;;3.35;2.22;;;18.80;48.40;;;;;;5052048;28;20254;-69
2022/02/28 09:16:12;;;;;;;3.17;2.30;;;18.70;48.50;;;;;;5051019;28;20313;-72
2022/02/28 09:18:38;;;;;;;2.42;2.22;;;18.70;48.70;;;;;;5051684;28;20195;-69
2022/02/28 09:21:03;;;;;;;2.70;2.50;;;18.60;48.80;;;;;;5051275;28;20171;-69
2022/02/28 09:23:29;;;;;;;2.90;2.28;;;18.60;48.90;;;;;;5050944;28;20174;-68
2022/02/28 09:25:54;;;;;;;2.72;2.05;;;18.50;49.00;;;;;;5051247;28;20527;-69
2022/02/28 09:28:20;;;;;;;2.47;2.28;;;18.50;49.10;;;;;;5051728;28;20175;-70
2022/02/28 09:30:45;;;;;;;2.70;2.50;;;18.50;49.20;;;;;;5050968;28;20660;-71
2022/02/28 09:33:11;;;;;;;3.40;2.50;;;18.60;49.20;;;;;;5051134;28;20179;-70
2022/02/28 09:35:37;;;;;;;3.13;2.20;;;18.50;49.30;;;;;;5051457;28;20264;-69
2022/02/28 09:38:02;;;;;;;3.47;2.40;;;18.50;49.30;;;;;;5050302;28;20237;-69
2022/02/28 09:40:29;;;;;;;4.53;2.22;;;18.50;49.40;;;;;;5051438;28;20214;-70
2022/02/28 09:42:55;;;;;;;2.65;2.28;;;18.40;49.50;;;;;;5051312;28;20176;-69
2022/02/28 09:45:21;;;;;;;2.88;2.20;;;18.40;49.50;;;;;;5050926;28;20531;-68
2022/02/28 09:47:47;;;;;;;2.63;2.13;;;18.40;49.60;;;;;;5033512;28;20638;-68
2022/02/28 09:50:12;;;;;;;2.13;2.03;;;18.40;49.70;;;;;;5033177;28;20187;-70
2022/02/28 09:52:38;;;;;;;2.45;2.17;;;18.40;49.70;;;;;;5050644;28;20167;-70
2022/02/28 09:55:04;;;;;;;3.47;2.50;;;18.40;49.80;;;;;;5033029;28;20184;-68
2022/02/28 09:57:29;;;;;;;2.70;2.22;;;18.40;49.70;;;;;;5051107;28;20261;-68
2022/02/28 09:59:55;;;;;;;2.58;2.35;;;18.40;49.70;;;;;;5050300;28;20669;-68
2022/02/28 10:02:20;;;;;;;2.50;2.30;;;18.40;49.80;;;;;;5053896;28;20168;-70
2022/02/28 10:04:46;;;;;;;2.40;2.17;;;18.40;49.80;;;;;;5054717;28;20168;-69
2022/02/28 10:07:22;;;;;;;3.15;2.47;;;18.40;49.80;;;;;;5053571;28;20186;-69
2022/02/28 10:10:09;;;;;;;2.75;2.10;;;18.40;49.80;;;;;;5054569;28;20198;-67
2022/02/28 10:12:35;;;;;;;2.40;2.20;;;18.40;49.80;;;;;;5038920;28;20179;-68
2022/02/28 10:15:05;;;;;;;2.83;2.25;;;18.40;49.80;;;;;;5036175;28;20603;-68
2022/02/28 10:17:48;;;;;;;2.20;1.92;;;18.40;49.80;;;;;;5054234;28;20204;-68
2022/02/28 10:20:30;;;;;;;2.75;2.40;;;18.40;49.90;;;;;;5053320;28;20261;-68
2022/02/28 10:23:03;;;;;;;2.58;2.38;;;18.40;49.80;;;;;;5053792;28;20636;-68
2022/02/28 10:25:37;;;;;;;2.28;2.08;;;18.40;49.80;;;;;;5054259;28;20301;-68
2022/02/28 10:28:25;;;;;;;2.40;2.20;;;18.40;49.80;;;;;;5053182;28;20183;-68
2022/02/28 10:31:00;;;;;;;2.53;2.33;;;18.50;49.90;;;;;;5054265;28;20190;-69
2022/02/28 10:33:32;;;;;;;2.63;2.42;;;18.50;49.80;;;;;;5053269;28;20549;-69
2022/02/28 10:36:11;;;;;;;2.92;2.45;;;18.50;49.80;;;;;;5053694;28;20625;-68
2022/02/28 10:38:43;;;;;;;3.10;2.35;;;18.40;49.80;;;;;;5053004;28;20448;-63
2022/02/28 10:41:22;;;;;;;5.57;2.60;;;18.50;49.80;;;;;;5053173;28;20245;-67
2022/02/28 10:43:48;;;;;;;4.35;2.72;;;18.50;49.80;;;;;;5053773;28;20661;-69
2022/02/28 10:46:18;;;;;;;3.03;2.38;;;18.50;49.80;;;;;;5053468;28;20631;-67
2022/02/28 10:49:03;;;;;;;2.70;2.42;;;18.50;49.70;;;;;;5052877;28;20188;-68
2022/02/28 10:51:29;;;;;;;2.63;1.88;;;18.50;49.70;;;;;;5053898;28;20202;-73
2022/02/28 10:54:25;;;;;;;4.40;2.50;;;18.50;49.70;;;;;;5053413;28;20175;-71
2022/02/28 10:57:21;;;;;;;3.38;2.20;;;18.60;49.70;;;;;;5053322;28;20171;-70
2022/02/28 10:59:56;;;;;;;2.80;2.33;;;18.60;49.70;;;;;;5053302;28;20314;-68
2022/02/28 11:02:34;;;;;;;2.25;1.98;;;18.60;49.70;;;;;;5052653;28;20190;-70
2022/02/28 11:05:19;;;;;;;2.70;2.50;;;18.60;49.70;;;;;;5053165;28;20198;-69
2022/02/28 11:07:48;;;;;;;4.22;2.85;;;18.60;49.70;;;;;;5056724;28;20197;-69
2022/02/28 11:10:15;;;;;;;2.38;2.10;;;18.60;49.70;;;;;;5061585;28;20296;-69
2022/02/28 11:12:40;;;;;;;2.50;2.30;;;18.70;49.80;;;;;;5063768;28;20183;-70
2022/02/28 11:15:08;;;;;;;3.90;2.58;;;18.70;49.80;;;;;;5062003;28;20178;-69
2022/02/28 11:17:36;;;;;;;3.03;2.40;;;18.70;49.80;;;;;;5061213;28;20517;-69
2022/02/28 11:20:06;;;;;;;4.22;2.47;;;18.70;49.80;;;;;;5063239;28;20201;-71
2022/02/28 11:22:32;;;;;;;2.80;2.30;;;18.70;49.80;;;;;;5060752;28;20274;-69
2022/02/28 11:24:57;;;;;;;4.00;2.60;;;18.70;49.80;;;;;;5062427;28;20255;-71
2022/02/28 11:27:23;;;;;;;2.45;2.25;;;18.70;49.80;;;;;;5072969;28;20177;-69
2022/02/28 11:29:50;;;;;;;2.88;2.60;;;18.80;49.90;;;;;;5072302;28;20324;-68
2022/02/28 11:32:16;;;;;;;6.15;2.70;;;18.80;49.80;;;;;;5072620;28;20182;-66
2022/02/28 11:34:41;;;;;;;2.50;2.30;;;18.80;49.70;;;;;;5054487;28;20193;-65
2022/02/28 11:37:11;;;;;;;2.30;2.20;;;18.80;49.70;;;;;;5053686;28;20552;-65
2022/02/28 11:39:40;;;;;;;2.97;2.65;;;18.80;49.70;;;;;;5072785;28;20225;-66
2022/02/28 11:42:06;;;;;;;2.92;2.50;;;18.80;49.70;;;;;;5072422;28;20204;-66
2022/02/28 11:44:36;;;;;;;2.38;2.17;;;18.80;49.60;;;;;;5072025;28;20281;-66
2022/02/28 11:47:03;;;;;;;2.28;1.77;;;18.80;49.60;;;;;;5072083;28;20189;-68
2022/02/28 11:49:39;;;;;;;3.50;2.10;;;18.80;49.60;;;;;;5072361;28;20170;-68
2022/02/28 11:52:28;;;;;;;4.18;2.35;;;18.80;49.60;;;;;;5071365;28;20178;-68
2022/02/28 11:54:58;;;;;;;3.05;2.75;;;18.90;49.60;;;;;;5071836;28;20181;-68
2022/02/28 11:57:46;;;;;;;2.63;2.30;;;18.80;49.50;;;;;;5072415;28;20292;-68
2022/02/28 12:00:12;;;;;;;2.15;1.95;;;18.90;49.60;;;;;;5071922;28;20283;-68
2022/02/28 12:02:37;;;;;;;3.83;2.63;;;18.90;49.60;;;;;;5072211;28;20178;-67
2022/02/28 12:05:04;;;;;;;2.85;2.42;;;18.90;49.60;;;;;;5071260;28;20925;-68
2022/02/28 12:07:31;;;;;;;2.65;2.42;;;19.00;49.70;;;;;;5054457;28;20182;-68
2022/02/28 12:10:14;;;;;;;4.07;2.50;;;18.90;49.70;;;;;;5071868;28;20249;-69
2022/02/28 12:12:55;;;;;;;2.60;2.40;;;19.00;49.70;;;;;;5071603;28;20170;-69
2022/02/28 12:15:22;;;;;;;5.25;2.80;;;19.00;49.70;;;;;;5072195;28;20239;-64
2022/02/28 12:17:47;;;;;;;3.13;2.10;;;19.00;49.70;;;;;;5072126;28;20173;-72
2022/02/28 12:20:14;;;;;;;2.60;2.20;;;18.90;49.70;;;;;;5070906;28;20210;-72
2022/02/28 12:22:54;;;;;;;4.38;2.70;;;19.00;49.80;;;;;;5071973;28;20178;-74
2022/02/28 12:25:44;;;;;;;2.83;2.40;;;18.90;49.80;;;;;;5071727;28;20182;-72
2022/02/28 12:28:34;;;;;;;2.90;2.30;;;18.90;49.80;;;;;;5070996;28;20198;-69
2022/02/28 12:31:06;;;;;;;3.35;2.60;;;18.90;49.80;;;;;;5071625;28;20178;-73
2022/02/28 12:33:34;;;;;;;3.45;2.20;;;18.90;49.90;;;;;;5071019;28;20625;-70
2022/02/28 12:36:02;;;;;;;4.20;2.75;;;18.90;50.40;;;;;;5071663;28;20182;-71
2022/02/28 12:38:32;;;;;;;4.18;2.28;;;18.90;49.80;;;;;;5071779;28;20523;-72
2022/02/28 12:40:59;;;;;;;2.75;2.03;;;18.90;49.80;;;;;;5070917;28;20226;-72
2022/02/28 12:43:27;;;;;;;4.07;2.55;;;18.90;49.80;;;;;;5071699;28;20243;-74
2022/02/28 12:45:54;;;;;;;2.10;1.90;;;18.90;49.80;;;;;;5071713;28;20202;-73
2022/02/28 12:48:21;;;;;;;2.65;2.45;;;18.90;49.90;;;;;;5071235;28;20174;-73